Salt Lake City, Utah
Current Conditions -  °F | °C
As of 2:53 AM on Wednesday 22 Oct 2014 (Local Time) from KSLC Reporting Station
Few Clouds Few Clouds  
Wind Chill:   Ceiling: Unl
Heat Index:   Visibility: 10mi
Dew Point:   Wind: 3mph
Humidity: 74%   Direction: 30°NNE
Pressure: 30.11"   Gusts: NA
Location:  40.76°N, 111.88°W
Report Text: KSLC 220853Z 03003KT 10SM FEW150 06/02 A3011 RMK AO2 SLP174 T00610017 53008
Loading
Personal Weather Stations






























Interactive Weather Map
Tropical Storm Tracking
New forecast layout! Learn more

10-Day Weather Forecast

Advertisements
Track Severe Weather on mobile